createdAt,value
2023-01-21T00:01:03.639Z,4.60
2023-01-21T00:03:30.416Z,4.50
2023-01-21T00:05:58.329Z,4.60
2023-01-21T00:08:26.338Z,4.60
2023-01-21T00:10:53.540Z,4.60
2023-01-21T00:13:20.306Z,4.50
2023-01-21T00:15:47.150Z,4.50
2023-01-21T00:18:13.959Z,4.40
2023-01-21T00:20:40.680Z,4.40
2023-01-21T00:23:07.424Z,4.30
2023-01-21T00:25:34.186Z,4.30
2023-01-21T00:28:01.388Z,4.10
2023-01-21T00:30:28.270Z,3.90
2023-01-21T00:32:55.026Z,3.90
2023-01-21T00:35:21.843Z,3.80
2023-01-21T00:37:51.383Z,3.70
2023-01-21T00:40:18.543Z,3.60
2023-01-21T00:42:45.480Z,3.60
2023-01-21T00:45:12.491Z,3.70
2023-01-21T00:47:39.198Z,3.60
2023-01-21T00:50:06.773Z,3.70
2023-01-21T00:52:33.497Z,3.70
2023-01-21T00:55:00.217Z,3.60
2023-01-21T00:57:27.017Z,3.60
2023-01-21T00:59:53.817Z,3.80
2023-01-21T01:02:20.556Z,3.80
2023-01-21T01:04:47.279Z,3.90
2023-01-21T01:07:14.130Z,3.90
2023-01-21T01:09:40.873Z,4.00
2023-01-21T01:12:07.661Z,4.00
2023-01-21T01:14:34.351Z,4.00
2023-01-21T01:17:01.151Z,4.00
2023-01-21T01:19:28.056Z,4.10
2023-01-21T01:21:54.885Z,4.10
2023-01-21T01:24:21.551Z,4.10
2023-01-21T01:26:48.299Z,4.10
2023-01-21T01:29:15.102Z,4.10
2023-01-21T01:31:43.671Z,4.10
2023-01-21T01:34:10.510Z,4.00
2023-01-21T01:36:37.326Z,3.90
2023-01-21T01:39:04.981Z,3.80
2023-01-21T01:41:34.942Z,3.70
2023-01-21T01:44:06.241Z,3.60
2023-01-21T01:46:35.935Z,3.60
2023-01-21T01:49:15.842Z,3.70
2023-01-21T01:51:55.969Z,3.80
2023-01-21T01:54:32.921Z,3.90
2023-01-21T01:57:04.141Z,4.00
2023-01-21T01:59:32.957Z,3.90
2023-01-21T02:02:05.197Z,4.00
2023-01-21T02:04:37.846Z,4.00
2023-01-21T02:07:04.741Z,4.00
2023-01-21T02:09:31.670Z,3.90
2023-01-21T02:12:03.431Z,3.90
2023-01-21T02:14:31.739Z,3.90
2023-01-21T02:17:07.421Z,3.90
2023-01-21T02:19:52.857Z,3.90
2023-01-21T02:22:37.313Z,4.10
2023-01-21T02:25:35.037Z,3.90
2023-01-21T02:28:23.073Z,3.90
2023-01-21T02:31:08.693Z,3.90
2023-01-21T02:33:46.079Z,3.80
2023-01-21T02:36:36.688Z,3.70
2023-01-21T02:39:07.886Z,3.70
2023-01-21T02:41:58.496Z,3.70
2023-01-21T02:44:35.199Z,3.60
2023-01-21T02:47:05.041Z,3.60
2023-01-21T02:49:45.999Z,3.50
2023-01-21T02:52:21.304Z,3.50
2023-01-21T02:54:54.090Z,3.50
2023-01-21T02:57:49.014Z,3.60
2023-01-21T03:00:31.678Z,3.60
2023-01-21T03:03:10.618Z,3.60
2023-01-21T03:05:55.389Z,3.60
2023-01-21T03:08:30.439Z,3.60
2023-01-21T03:11:21.432Z,3.60
2023-01-21T03:14:12.397Z,3.50
2023-01-21T03:16:57.828Z,3.60
2023-01-21T03:19:32.357Z,3.60
2023-01-21T03:22:02.674Z,3.50
2023-01-21T03:24:29.608Z,3.30
2023-01-21T03:26:58.910Z,3.20
2023-01-21T03:29:29.008Z,3.20
2023-01-21T03:32:04.547Z,3.10
2023-01-21T03:34:35.632Z,3.00
2023-01-21T03:37:14.159Z,3.00
2023-01-21T03:39:49.074Z,2.90
2023-01-21T03:42:16.514Z,2.90
2023-01-21T03:44:43.590Z,2.80
2023-01-21T03:47:32.947Z,2.90
2023-01-21T03:50:09.469Z,2.80
2023-01-21T03:52:43.217Z,2.70
2023-01-21T03:55:12.119Z,2.80
2023-01-21T03:57:39.039Z,2.70
2023-01-21T04:00:07.621Z,2.70
2023-01-21T04:02:34.435Z,2.70
2023-01-21T04:05:01.212Z,2.70
2023-01-21T04:07:28.269Z,2.70
2023-01-21T04:09:55.081Z,2.80
2023-01-21T04:12:22.318Z,2.80
2023-01-21T04:14:49.098Z,3.50
2023-01-21T04:17:15.807Z,2.80
2023-01-21T04:19:42.613Z,2.70
2023-01-21T04:22:09.407Z,2.60
2023-01-21T04:24:36.169Z,2.70
2023-01-21T04:27:02.995Z,3.20
2023-01-21T04:29:29.764Z,2.80
2023-01-21T04:31:56.546Z,2.70
2023-01-21T04:34:23.355Z,2.70
2023-01-21T04:36:50.216Z,2.60
2023-01-21T04:39:17.062Z,2.70
2023-01-21T04:41:43.825Z,2.60
2023-01-21T04:44:10.603Z,2.60
2023-01-21T04:46:37.344Z,2.60
2023-01-21T04:49:04.318Z,2.40
2023-01-21T04:51:31.167Z,2.60
2023-01-21T04:53:57.856Z,2.50
2023-01-21T04:56:24.601Z,2.50
2023-01-21T04:58:51.373Z,2.60
2023-01-21T05:01:18.207Z,2.40
2023-01-21T05:03:44.946Z,2.40
2023-01-21T05:06:11.723Z,2.40
2023-01-21T05:08:38.454Z,2.40
2023-01-21T05:11:08.680Z,2.40
2023-01-21T05:13:35.674Z,2.30
2023-01-21T05:16:08.398Z,2.30
2023-01-21T05:18:36.315Z,2.30
2023-01-21T05:21:03.318Z,2.30
2023-01-21T05:23:30.090Z,2.30
2023-01-21T05:25:56.799Z,2.20
2023-01-21T05:28:23.616Z,2.10
2023-01-21T05:30:50.453Z,2.40
2023-01-21T05:33:17.226Z,2.20
2023-01-21T05:35:44.094Z,2.30
2023-01-21T05:38:10.816Z,2.30
2023-01-21T05:40:38.191Z,2.30
2023-01-21T05:43:04.967Z,2.30
2023-01-21T05:45:31.792Z,2.40
2023-01-21T05:47:58.631Z,2.60
2023-01-21T05:50:25.391Z,2.60
2023-01-21T05:52:52.108Z,2.80
2023-01-21T05:55:18.892Z,2.80
2023-01-21T05:57:45.710Z,2.80
2023-01-21T06:00:13.007Z,3.00
2023-01-21T06:02:39.720Z,3.10
2023-01-21T06:05:06.915Z,3.00
2023-01-21T06:07:33.714Z,3.10
2023-01-21T06:10:00.453Z,3.10
2023-01-21T06:12:27.191Z,3.00
2023-01-21T06:14:53.988Z,3.10
2023-01-21T06:17:20.722Z,3.20
2023-01-21T06:19:47.567Z,3.40
2023-01-21T06:22:18.246Z,3.50
2023-01-21T06:24:45.070Z,3.50
2023-01-21T06:27:12.727Z,3.60
2023-01-21T06:29:39.500Z,3.60
2023-01-21T06:32:06.602Z,3.70
2023-01-21T06:34:33.482Z,3.80
2023-01-21T06:37:00.240Z,3.80
2023-01-21T06:39:26.964Z,3.90
2023-01-21T06:41:55.333Z,3.90
2023-01-21T06:44:22.670Z,3.90
2023-01-21T06:47:00.149Z,3.90
2023-01-21T06:49:27.609Z,3.80
2023-01-21T06:51:54.309Z,3.80
2023-01-21T06:54:21.056Z,3.80
2023-01-21T06:56:47.777Z,3.90
2023-01-21T06:59:14.524Z,4.10
2023-01-21T07:01:41.247Z,4.00
2023-01-21T07:04:08.140Z,3.90
2023-01-21T07:06:34.944Z,3.90
2023-01-21T07:09:01.727Z,3.80
2023-01-21T07:11:28.428Z,3.80
2023-01-21T07:13:55.186Z,3.90
2023-01-21T07:16:22.187Z,3.70
2023-01-21T07:18:49.043Z,3.60
2023-01-21T07:21:15.858Z,3.50
2023-01-21T07:23:43.185Z,3.50
2023-01-21T07:26:09.907Z,3.50
2023-01-21T07:28:36.655Z,3.50
2023-01-21T07:31:04.076Z,3.60
2023-01-21T07:33:30.991Z,3.60
2023-01-21T07:35:57.751Z,3.40
2023-01-21T07:38:24.549Z,3.40
2023-01-21T07:40:51.426Z,3.30
2023-01-21T07:43:18.139Z,3.30
2023-01-21T07:45:45.315Z,3.40
2023-01-21T07:48:11.986Z,3.50
2023-01-21T07:50:38.878Z,3.40
2023-01-21T07:53:05.978Z,3.50
2023-01-21T07:55:32.751Z,3.50
2023-01-21T07:58:00.106Z,3.60
2023-01-21T08:00:27.151Z,3.70
2023-01-21T08:02:55.129Z,3.80
2023-01-21T08:05:23.745Z,3.90
2023-01-21T08:07:50.877Z,4.00
2023-01-21T08:10:18.818Z,4.00
2023-01-21T08:12:45.601Z,4.00
2023-01-21T08:15:12.665Z,4.10
2023-01-21T08:17:41.634Z,4.20
2023-01-21T08:20:09.791Z,4.00
2023-01-21T08:22:37.479Z,4.20
2023-01-21T08:25:08.016Z,4.20
2023-01-21T08:27:34.803Z,4.30
2023-01-21T08:30:01.607Z,4.30
2023-01-21T08:32:31.498Z,4.30
2023-01-21T08:34:58.387Z,4.20
2023-01-21T08:37:25.415Z,4.20
2023-01-21T08:39:52.210Z,4.20
2023-01-21T08:42:19.086Z,4.20
2023-01-21T08:44:46.400Z,4.20
2023-01-21T08:47:13.157Z,4.10
2023-01-21T08:49:39.855Z,4.30
2023-01-21T08:52:06.824Z,4.30
2023-01-21T08:54:33.591Z,4.20
2023-01-21T08:57:00.535Z,4.20
2023-01-21T08:59:28.723Z,4.10
2023-01-21T09:01:56.225Z,4.30
2023-01-21T09:04:23.529Z,4.20
2023-01-21T09:06:50.331Z,4.20
2023-01-21T09:09:17.185Z,4.20
2023-01-21T09:11:43.998Z,4.10
2023-01-21T09:14:10.758Z,4.30
2023-01-21T09:16:37.571Z,4.30
2023-01-21T09:19:04.696Z,4.30
2023-01-21T09:21:34.447Z,4.30
2023-01-21T09:24:01.389Z,4.30
2023-01-21T09:26:28.449Z,4.40
2023-01-21T09:28:57.777Z,4.50
2023-01-21T09:31:26.601Z,4.50
2023-01-21T09:34:00.324Z,4.60
2023-01-21T09:36:30.081Z,4.60
2023-01-21T09:38:57.292Z,2.80
2023-01-21T09:41:44.201Z,4.60
2023-01-21T09:44:10.910Z,4.60
2023-01-21T09:46:54.833Z,4.70
2023-01-21T09:49:41.563Z,4.90
2023-01-21T09:52:24.527Z,4.90
2023-01-21T09:54:51.441Z,4.80
2023-01-21T09:57:40.085Z,4.70
2023-01-21T10:00:31.863Z,4.70
2023-01-21T10:03:39.290Z,4.70
2023-01-21T10:06:38.313Z,4.70
2023-01-21T10:09:31.749Z,4.70
2023-01-21T10:12:10.572Z,4.80
2023-01-21T10:15:31.502Z,4.70
2023-01-21T10:18:06.967Z,4.70
2023-01-21T10:20:53.278Z,4.80
2023-01-21T10:23:32.223Z,4.70
2023-01-21T10:26:05.125Z,4.80
2023-01-21T10:28:32.188Z,4.80
2023-01-21T10:31:07.128Z,4.80
2023-01-21T10:33:34.197Z,4.80
2023-01-21T10:36:11.149Z,4.70
2023-01-21T10:38:57.453Z,4.70
2023-01-21T10:41:48.446Z,4.70
2023-01-21T10:44:27.060Z,4.70
2023-01-21T10:47:17.031Z,4.60
2023-01-21T10:49:49.643Z,4.60
2023-01-21T10:52:38.418Z,4.70
2023-01-21T10:55:29.795Z,4.70
2023-01-21T10:58:02.249Z,4.70
2023-01-21T11:00:33.574Z,4.90
2023-01-21T11:03:03.974Z,4.90
2023-01-21T11:05:32.405Z,4.80
2023-01-21T11:07:59.861Z,5.20
2023-01-21T11:10:27.761Z,5.20
2023-01-21T11:12:55.973Z,5.20
2023-01-21T11:15:23.616Z,5.20
2023-01-21T11:17:56.370Z,5.30
2023-01-21T11:20:39.625Z,5.30
2023-01-21T11:23:22.878Z,5.40
2023-01-21T11:25:49.683Z,5.30
2023-01-21T11:28:25.276Z,5.30
2023-01-21T11:31:12.591Z,5.20
2023-01-21T11:33:40.988Z,5.20
2023-01-21T11:36:12.603Z,5.30
2023-01-21T11:38:39.752Z,5.20
2023-01-21T11:41:17.318Z,5.20
2023-01-21T11:43:55.954Z,5.20
2023-01-21T11:46:30.548Z,5.20
2023-01-21T11:49:19.390Z,5.30
2023-01-21T11:51:47.026Z,5.40
2023-01-21T11:54:13.707Z,5.60
2023-01-21T11:56:43.303Z,5.50
2023-01-21T11:59:24.853Z,5.60
2023-01-21T12:02:00.135Z,5.70
2023-01-21T12:04:27.161Z,5.60
2023-01-21T12:06:58.071Z,5.60
2023-01-21T12:09:25.263Z,5.70
2023-01-21T12:12:14.668Z,5.80
2023-01-21T12:14:52.256Z,5.80
2023-01-21T12:17:28.249Z,5.70
2023-01-21T12:20:33.400Z,6.40
2023-01-21T12:23:17.124Z,5.60
2023-01-21T12:25:58.518Z,5.50
2023-01-21T12:28:49.984Z,5.40
2023-01-21T12:31:45.081Z,5.30
2023-01-21T12:34:36.077Z,5.20
2023-01-21T12:37:16.287Z,5.10
2023-01-21T12:39:44.390Z,5.10
2023-01-21T12:42:14.012Z,5.00
2023-01-21T12:44:50.725Z,5.00
2023-01-21T12:47:23.674Z,5.10
2023-01-21T12:49:53.286Z,5.20
2023-01-21T12:52:40.319Z,5.10
2023-01-21T12:55:18.557Z,5.40
2023-01-21T12:57:56.777Z,5.20
2023-01-21T13:00:36.672Z,5.20
2023-01-21T13:03:15.339Z,5.10
2023-01-21T13:05:54.938Z,5.00
2023-01-21T13:08:46.737Z,5.30
2023-01-21T13:11:19.959Z,5.40
2023-01-21T13:14:02.091Z,5.50
2023-01-21T13:16:30.303Z,5.50
2023-01-21T13:18:57.069Z,5.40
2023-01-21T13:21:32.674Z,5.50
2023-01-21T13:24:15.879Z,5.60
2023-01-21T13:27:05.657Z,5.70
2023-01-21T13:29:36.367Z,5.60
2023-01-21T13:32:24.214Z,5.50
2023-01-21T13:35:08.198Z,5.50
2023-01-21T13:38:18.929Z,5.60
2023-01-21T13:41:09.273Z,5.60
2023-01-21T13:44:13.232Z,5.60
2023-01-21T13:46:52.687Z,5.50
2023-01-21T13:49:41.354Z,5.40
2023-01-21T13:52:18.275Z,5.40
2023-01-21T13:55:16.372Z,5.40
2023-01-21T13:57:43.134Z,5.50
2023-01-21T14:00:33.846Z,5.00
2023-01-21T14:03:24.228Z,5.40
2023-01-21T14:06:05.019Z,5.20
2023-01-21T14:08:43.283Z,5.20
2023-01-21T14:11:20.055Z,5.10
2023-01-21T14:14:04.920Z,5.00
2023-01-21T14:17:09.273Z,5.10
2023-01-21T14:20:13.306Z,5.20
2023-01-21T14:22:58.018Z,5.30
2023-01-21T14:25:57.454Z,5.30
2023-01-21T14:28:42.525Z,5.10
2023-01-21T14:31:24.107Z,5.00
2023-01-21T14:34:06.241Z,4.90
2023-01-21T14:36:36.016Z,4.90
2023-01-21T14:39:23.194Z,4.90
2023-01-21T14:42:10.629Z,4.90
2023-01-21T14:44:49.373Z,4.80
2023-01-21T14:47:16.187Z,4.70
2023-01-21T14:49:48.928Z,4.70
2023-01-21T14:52:18.478Z,4.70
2023-01-21T14:54:46.149Z,4.60
2023-01-21T14:57:22.413Z,4.60
2023-01-21T14:59:50.497Z,4.60
2023-01-21T15:02:34.602Z,4.70
2023-01-21T15:05:10.333Z,4.70
2023-01-21T15:07:42.746Z,4.60
2023-01-21T15:10:21.539Z,4.60
2023-01-21T15:12:55.615Z,4.60
2023-01-21T15:15:29.221Z,4.50
2023-01-21T15:17:57.571Z,4.50
2023-01-21T15:20:46.447Z,4.40
2023-01-21T15:23:20.379Z,4.50
2023-01-21T15:26:08.860Z,4.40
2023-01-21T15:28:46.251Z,4.40
2023-01-21T15:31:40.783Z,4.40
2023-01-21T15:34:14.549Z,4.30
2023-01-21T15:36:52.903Z,4.30
2023-01-21T15:39:31.491Z,4.30
2023-01-21T15:42:16.708Z,4.40
2023-01-21T15:45:12.550Z,4.40
2023-01-21T15:47:45.140Z,4.40
2023-01-21T15:50:20.196Z,4.50
2023-01-21T15:53:08.231Z,4.40
2023-01-21T15:56:08.543Z,4.60
2023-01-21T15:59:19.183Z,4.50
2023-01-21T16:01:48.902Z,4.40
2023-01-21T16:04:34.411Z,4.40
2023-01-21T16:07:19.491Z,4.40
2023-01-21T16:10:18.443Z,4.30
2023-01-21T16:13:10.241Z,4.30
2023-01-21T16:16:00.395Z,4.30
2023-01-21T16:19:07.152Z,5.00
2023-01-21T16:21:40.176Z,4.20
2023-01-21T16:24:19.455Z,4.10
2023-01-21T16:26:46.336Z,4.90
2023-01-21T16:29:14.872Z,4.10
2023-01-21T16:31:46.846Z,4.00
2023-01-21T16:34:14.018Z,4.40
2023-01-21T16:36:40.872Z,4.10
2023-01-21T16:39:10.136Z,4.00
2023-01-21T16:41:39.151Z,3.90
2023-01-21T16:44:06.515Z,3.80
2023-01-21T16:46:37.364Z,3.90
2023-01-21T16:49:12.027Z,3.80
2023-01-21T16:51:51.131Z,3.70
2023-01-21T16:54:17.864Z,3.70
2023-01-21T16:56:48.445Z,3.70
2023-01-21T16:59:29.474Z,3.70
2023-01-21T17:01:58.616Z,3.70
2023-01-21T17:04:25.447Z,3.70
2023-01-21T17:06:53.943Z,3.70
2023-01-21T17:09:29.656Z,3.60
2023-01-21T17:11:58.006Z,3.70
2023-01-21T17:14:28.747Z,3.60
2023-01-21T17:16:58.292Z,3.60
2023-01-21T17:19:37.001Z,3.60
2023-01-21T17:22:20.524Z,3.60
2023-01-21T17:25:01.709Z,3.60
2023-01-21T17:27:29.986Z,3.60
2023-01-21T17:30:37.245Z,3.60
2023-01-21T17:33:04.069Z,3.60
2023-01-21T17:35:32.936Z,3.80
2023-01-21T17:38:02.070Z,3.80
2023-01-21T17:40:31.704Z,3.80
2023-01-21T17:43:01.601Z,3.80
2023-01-21T17:45:31.753Z,3.80
2023-01-21T17:48:11.725Z,3.90
2023-01-21T17:50:46.199Z,3.90
2023-01-21T17:53:22.850Z,3.90
2023-01-21T17:56:08.441Z,3.90
2023-01-21T17:58:39.342Z,4.00
2023-01-21T18:01:06.079Z,3.90
2023-01-21T18:03:32.766Z,3.90
2023-01-21T18:05:59.936Z,3.90
2023-01-21T18:08:26.681Z,3.80
2023-01-21T18:10:53.458Z,4.70
2023-01-21T18:13:22.068Z,3.90
2023-01-21T18:15:51.492Z,3.90
2023-01-21T18:18:27.007Z,3.90
2023-01-21T18:20:54.113Z,3.90
2023-01-21T18:23:21.355Z,3.90
2023-01-21T18:25:53.667Z,3.90
2023-01-21T18:28:28.362Z,3.90
2023-01-21T18:30:57.516Z,3.80
2023-01-21T18:33:25.349Z,3.90
2023-01-21T18:35:52.959Z,3.90
2023-01-21T18:38:27.410Z,3.80
2023-01-21T18:40:55.492Z,3.70
2023-01-21T18:43:23.145Z,3.70
2023-01-21T18:45:49.996Z,3.70
2023-01-21T18:48:19.848Z,3.80
2023-01-21T18:50:46.772Z,3.70
2023-01-21T18:53:13.649Z,3.80
2023-01-21T18:55:44.052Z,3.80
2023-01-21T18:58:14.689Z,3.80
2023-01-21T19:00:42.081Z,3.80
2023-01-21T19:03:13.598Z,3.80
2023-01-21T19:05:42.671Z,3.70
2023-01-21T19:08:18.597Z,3.80
2023-01-21T19:10:45.469Z,3.70
2023-01-21T19:13:12.485Z,3.60
2023-01-21T19:15:39.540Z,3.60
2023-01-21T19:18:14.104Z,3.50
2023-01-21T19:20:41.896Z,3.50
2023-01-21T19:23:15.699Z,3.50
2023-01-21T19:26:04.715Z,3.50
2023-01-21T19:28:32.441Z,3.50
2023-01-21T19:30:59.326Z,3.50
2023-01-21T19:33:26.478Z,3.40
2023-01-21T19:36:11.951Z,3.40
2023-01-21T19:38:38.729Z,3.30
2023-01-21T19:41:05.549Z,3.40
2023-01-21T19:43:32.450Z,3.30
2023-01-21T19:45:59.330Z,3.30
2023-01-21T19:48:28.468Z,3.20
2023-01-21T19:50:55.208Z,3.30
2023-01-21T19:53:23.254Z,3.20
2023-01-21T19:55:50.784Z,3.30
2023-01-21T19:58:20.950Z,3.20
2023-01-21T20:00:49.961Z,3.20
2023-01-21T20:03:18.465Z,3.10
2023-01-21T20:05:47.083Z,3.10
2023-01-21T20:08:18.828Z,3.10
2023-01-21T20:10:45.579Z,3.10
2023-01-21T20:13:13.511Z,3.00
2023-01-21T20:15:42.623Z,3.00
2023-01-21T20:18:35.763Z,3.00
2023-01-21T20:21:02.522Z,3.00
2023-01-21T20:23:32.434Z,3.00
2023-01-21T20:25:59.525Z,3.00
2023-01-21T20:28:33.466Z,3.00
2023-01-21T20:31:03.412Z,3.00
2023-01-21T20:33:30.144Z,2.90
2023-01-21T20:35:57.188Z,2.80
2023-01-21T20:38:33.019Z,2.90
2023-01-21T20:41:01.100Z,2.80
2023-01-21T20:43:28.961Z,1.80
2023-01-21T20:45:59.405Z,3.00
2023-01-21T20:48:29.142Z,3.40
2023-01-21T20:50:56.354Z,2.90
2023-01-21T20:53:23.128Z,2.90
2023-01-21T20:55:51.033Z,3.00
2023-01-21T20:58:19.080Z,3.10
2023-01-21T21:00:46.681Z,3.10
2023-01-21T21:03:16.606Z,3.10
2023-01-21T21:05:47.250Z,3.10
2023-01-21T21:08:20.004Z,2.90
2023-01-21T21:10:47.710Z,3.00
2023-01-21T21:13:14.673Z,3.00
2023-01-21T21:15:45.041Z,3.00
2023-01-21T21:18:13.956Z,3.00
2023-01-21T21:20:41.233Z,3.10
2023-01-21T21:23:14.061Z,3.10
2023-01-21T21:25:47.073Z,3.00
2023-01-21T21:28:16.447Z,3.00
2023-01-21T21:30:43.967Z,3.00
2023-01-21T21:33:19.471Z,2.90
2023-01-21T21:35:46.958Z,3.00
2023-01-21T21:38:21.731Z,3.10
2023-01-21T21:40:52.810Z,3.10
2023-01-21T21:43:35.704Z,3.00
2023-01-21T21:46:30.790Z,3.00
2023-01-21T21:48:57.533Z,3.10
2023-01-21T21:51:24.597Z,3.00
2023-01-21T21:53:52.044Z,3.00
2023-01-21T21:56:21.577Z,3.00
2023-01-21T21:58:49.382Z,3.00
2023-01-21T22:01:24.003Z,2.90
2023-01-21T22:03:51.747Z,2.90
2023-01-21T22:06:20.837Z,3.00
2023-01-21T22:08:48.478Z,3.00
2023-01-21T22:11:18.009Z,2.90
2023-01-21T22:13:50.105Z,2.90
2023-01-21T22:16:26.229Z,2.90
2023-01-21T22:18:53.870Z,2.80
2023-01-21T22:21:23.672Z,2.80
2023-01-21T22:23:50.895Z,2.70
2023-01-21T22:26:20.364Z,2.70
2023-01-21T22:28:47.408Z,3.60
2023-01-21T22:31:17.927Z,2.70
2023-01-21T22:33:44.925Z,2.60
2023-01-21T22:36:15.092Z,2.60
2023-01-21T22:38:42.565Z,2.60
2023-01-21T22:41:11.558Z,2.60
2023-01-21T22:43:44.622Z,2.60
2023-01-21T22:46:13.631Z,2.60
2023-01-21T22:48:41.516Z,2.60
2023-01-21T22:51:12.375Z,2.50
2023-01-21T22:53:45.739Z,2.50
2023-01-21T22:56:17.896Z,2.50
2023-01-21T22:58:44.913Z,2.50
2023-01-21T23:01:41.190Z,2.50
2023-01-21T23:04:08.905Z,2.40
2023-01-21T23:06:37.646Z,2.40
2023-01-21T23:09:05.704Z,2.50
2023-01-21T23:11:34.956Z,2.40
2023-01-21T23:14:01.708Z,2.40
2023-01-21T23:16:28.409Z,2.40
2023-01-21T23:18:55.130Z,2.40
2023-01-21T23:21:22.395Z,2.40
2023-01-21T23:23:50.337Z,2.50
2023-01-21T23:26:19.164Z,2.50
2023-01-21T23:28:45.999Z,2.50
2023-01-21T23:31:16.673Z,2.50
2023-01-21T23:33:43.683Z,2.50
2023-01-21T23:36:12.928Z,2.60
2023-01-21T23:38:40.926Z,2.60
2023-01-21T23:41:09.323Z,2.60
2023-01-21T23:43:37.063Z,2.60
2023-01-21T23:46:13.383Z,2.60
2023-01-21T23:48:40.121Z,2.60
2023-01-21T23:51:10.315Z,2.60
2023-01-21T23:53:37.327Z,2.70
2023-01-21T23:56:17.238Z,2.70
2023-01-21T23:58:44.121Z,2.80
